Time;durP1;ratioP1;P1;durP2;ratioP2;P2;SDS_P1;SDS_P2;PMS_P1;PMS_P2;Temp;Humidity;BMP_temperature;BMP_pressure;BME280_temperature;BME280_humidity;BME280_pressure;Samples;Min_cycle;Max_cycle;Signal;HPM_P1;HPM_P2
2021/05/28 00:01:21;;;;;;;10.20;3.58;;;8.70;95.10;;;;;;5134118;27;20664;-78
2021/05/28 00:03:47;;;;;;;6.90;3.20;;;8.70;95.20;;;;;;5131836;27;20448;-77
2021/05/28 00:06:13;;;;;;;6.97;3.27;;;8.60;95.20;;;;;;5133929;27;20374;-78
2021/05/28 00:08:39;;;;;;;4.45;2.80;;;8.60;95.10;;;;;;5132767;27;20379;-77
2021/05/28 00:11:05;;;;;;;5.53;2.83;;;8.60;95.40;;;;;;5132375;27;20379;-78
2021/05/28 00:13:31;;;;;;;10.73;3.70;;;8.60;95.00;;;;;;5131729;27;20474;-79
2021/05/28 00:15:56;;;;;;;7.95;3.15;;;8.60;95.30;;;;;;5133741;27;20911;-77
2021/05/28 00:18:22;;;;;;;9.50;3.70;;;8.60;95.20;;;;;;5132653;27;20382;-78
2021/05/28 00:20:48;;;;;;;8.48;3.05;;;8.70;95.10;;;;;;5133310;27;20466;-78
2021/05/28 00:23:13;;;;;;;6.13;3.28;;;8.80;94.90;;;;;;5133400;27;20370;-78
2021/05/28 00:25:39;;;;;;;7.15;2.97;;;8.80;94.90;;;;;;5131668;27;20379;-77
2021/05/28 00:28:04;;;;;;;5.90;2.90;;;8.90;94.90;;;;;;5133087;27;20898;-77
2021/05/28 00:30:30;;;;;;;7.57;2.97;;;8.80;94.80;;;;;;5132961;27;20406;-77
2021/05/28 00:32:55;;;;;;;8.10;3.27;;;8.80;95.20;;;;;;5133680;27;20385;-79
2021/05/28 00:35:21;;;;;;;7.60;3.63;;;8.80;95.30;;;;;;5132931;27;20715;-78
2021/05/28 00:37:47;;;;;;;9.45;3.45;;;8.70;95.90;;;;;;5132841;27;20370;-78
2021/05/28 00:40:14;;;;;;;11.60;4.18;;;8.70;96.20;;;;;;5132947;27;20375;-77
2021/05/28 00:42:39;;;;;;;11.32;4.55;;;8.70;96.20;;;;;;5131988;27;20601;-77
2021/05/28 00:45:06;;;;;;;11.40;4.63;;;8.80;96.20;;;;;;5131610;27;20374;-78
2021/05/28 00:47:32;;;;;;;8.53;4.03;;;8.80;96.40;;;;;;5131460;27;20392;-79
2021/05/28 00:49:57;;;;;;;11.00;3.97;;;8.90;96.30;;;;;;5132450;27;20905;-77
2021/05/28 00:52:24;;;;;;;12.23;4.23;;;8.80;96.30;;;;;;5131612;27;20502;-76
2021/05/28 00:54:49;;;;;;;7.73;4.13;;;8.90;96.40;;;;;;5132769;27;20880;-77
2021/05/28 00:57:16;;;;;;;8.65;4.07;;;8.70;96.50;;;;;;5131056;27;20422;-77
2021/05/28 00:59:43;;;;;;;7.90;3.80;;;8.90;96.30;;;;;;5132718;27;20699;-77
2021/05/28 01:02:08;;;;;;;19.42;4.30;;;8.90;96.00;;;;;;5132415;27;20378;-78
2021/05/28 01:04:34;;;;;;;11.63;4.20;;;8.90;96.10;;;;;;5131072;27;20378;-77
2021/05/28 01:06:59;;;;;;;11.53;3.80;;;8.90;96.30;;;;;;5131771;27;20370;-77
2021/05/28 01:09:25;;;;;;;10.53;4.17;;;9.00;96.10;;;;;;5132512;27;20431;-77
2021/05/28 01:11:51;;;;;;;7.40;3.70;;;8.90;96.20;;;;;;5131584;27;20379;-79
2021/05/28 01:14:17;;;;;;;10.02;4.07;;;9.00;95.90;;;;;;5130354;27;20387;-79
2021/05/28 01:16:43;;;;;;;12.32;4.75;;;9.00;95.70;;;;;;5131619;27;20431;-79
2021/05/28 01:19:09;;;;;;;7.70;4.57;;;9.00;95.90;;;;;;5132007;27;20462;-78
2021/05/28 01:21:35;;;;;;;8.18;4.15;;;9.00;96.10;;;;;;5131782;27;20394;-78
2021/05/28 01:24:01;;;;;;;11.15;3.92;;;8.90;96.30;;;;;;5131869;27;20378;-78
2021/05/28 01:26:26;;;;;;;12.30;3.77;;;8.90;96.20;;;;;;5131810;27;20408;-77
2021/05/28 01:28:52;;;;;;;12.35;4.38;;;9.00;95.80;;;;;;5131324;27;20394;-78
2021/05/28 01:31:17;;;;;;;8.60;4.00;;;9.00;95.80;;;;;;5132222;27;20370;-78
2021/05/28 01:33:45;;;;;;;8.45;4.40;;;9.00;95.80;;;;;;5130202;27;20375;-78
2021/05/28 01:36:11;;;;;;;9.60;4.47;;;8.90;96.10;;;;;;5131853;27;20469;-78
2021/05/28 01:38:37;;;;;;;11.20;4.70;;;8.80;96.30;;;;;;5131372;27;20370;-78
2021/05/28 01:41:03;;;;;;;10.88;4.60;;;8.90;96.60;;;;;;5131795;27;20367;-78
2021/05/28 01:43:30;;;;;;;11.70;4.87;;;8.90;96.40;;;;;;5131711;27;20367;-78
2021/05/28 01:45:56;;;;;;;11.23;4.45;;;8.90;96.40;;;;;;5132157;27;20528;-78
2021/05/28 01:48:21;;;;;;;18.88;5.50;;;8.80;96.40;;;;;;5131013;27;20398;-77
2021/05/28 01:50:47;;;;;;;15.25;4.88;;;8.80;96.80;;;;;;5131463;27;20422;-78
2021/05/28 01:53:19;;;;;;;13.70;6.28;;;8.80;97.20;;;;;;5131726;27;20458;-78
2021/05/28 01:55:45;;;;;;;13.40;5.40;;;8.80;97.40;;;;;;5131434;27;20881;-78
2021/05/28 01:58:13;;;;;;;20.58;6.50;;;8.70;97.60;;;;;;5130860;27;20470;-77
2021/05/28 02:00:40;;;;;;;14.07;6.53;;;8.80;97.50;;;;;;5131484;27;20375;-80
2021/05/28 02:03:06;;;;;;;11.15;5.38;;;8.80;97.30;;;;;;5129900;27;20379;-78
2021/05/28 02:05:33;;;;;;;12.07;5.65;;;8.80;97.30;;;;;;5131504;27;20449;-78
2021/05/28 02:07:59;;;;;;;16.25;6.20;;;8.70;97.30;;;;;;5130776;27;20649;-79
2021/05/28 02:10:25;;;;;;;16.33;5.55;;;8.60;97.30;;;;;;5129572;27;20399;-78
2021/05/28 02:12:52;;;;;;;13.75;5.78;;;8.80;97.30;;;;;;5131393;27;20371;-78
2021/05/28 02:15:18;;;;;;;16.20;5.88;;;8.80;97.00;;;;;;5129645;28;20519;-78
2021/05/28 02:17:44;;;;;;;10.73;4.30;;;8.90;96.50;;;;;;5130894;27;20462;-78
2021/05/28 02:20:11;;;;;;;12.63;4.85;;;8.80;96.10;;;;;;5130901;27;20393;-79
2021/05/28 02:22:36;;;;;;;11.93;4.55;;;8.80;96.00;;;;;;5129838;28;20402;-77
2021/05/28 02:25:03;;;;;;;8.93;5.00;;;8.60;96.30;;;;;;5129865;27;20375;-78
2021/05/28 02:27:29;;;;;;;7.72;4.28;;;8.60;96.00;;;;;;5133295;27;20406;-78
2021/05/28 02:29:54;;;;;;;7.57;4.53;;;8.60;95.90;;;;;;5134225;27;20947;-78
2021/05/28 02:32:20;;;;;;;10.53;5.13;;;8.60;95.70;;;;;;5135191;27;20734;-79
2021/05/28 02:34:45;;;;;;;14.93;4.50;;;8.70;95.50;;;;;;5135435;27;20371;-78
2021/05/28 02:37:11;;;;;;;11.67;4.43;;;8.60;95.30;;;;;;5133448;27;20462;-78
2021/05/28 02:39:36;;;;;;;11.23;4.35;;;8.60;95.30;;;;;;5133948;27;20375;-78
2021/05/28 02:42:02;;;;;;;10.48;4.43;;;8.50;95.20;;;;;;5133806;27;20375;-79
2021/05/28 02:44:28;;;;;;;7.97;4.77;;;8.60;95.30;;;;;;5135153;27;20362;-78
2021/05/28 02:46:54;;;;;;;10.95;5.10;;;8.60;95.30;;;;;;5134669;27;20367;-78
2021/05/28 02:49:19;;;;;;;8.57;4.15;;;8.50;95.10;;;;;;5134642;27;20441;-79
2021/05/28 02:51:45;;;;;;;9.30;4.07;;;8.40;95.00;;;;;;5135284;27;20377;-79
2021/05/28 02:54:10;;;;;;;9.17;4.60;;;8.40;95.20;;;;;;5133360;27;20458;-78
2021/05/28 02:56:36;;;;;;;11.33;5.03;;;8.40;94.80;;;;;;5134853;27;20374;-78
2021/05/28 02:59:01;;;;;;;10.43;4.63;;;8.40;94.80;;;;;;5134946;27;20422;-78
2021/05/28 03:01:27;;;;;;;9.37;4.60;;;8.40;94.60;;;;;;5135017;27;20419;-79
2021/05/28 03:03:52;;;;;;;7.82;4.40;;;8.30;94.80;;;;;;5134797;27;20374;-78
2021/05/28 03:06:18;;;;;;;6.65;4.43;;;8.20;95.10;;;;;;5134752;27;20367;-78
2021/05/28 03:08:43;;;;;;;8.00;4.83;;;8.20;94.90;;;;;;5134130;27;20374;-78
2021/05/28 03:11:09;;;;;;;10.07;4.50;;;8.10;95.20;;;;;;5134925;27;20377;-79
2021/05/28 03:13:35;;;;;;;11.73;4.80;;;8.10;95.00;;;;;;5134231;27;20382;-79
2021/05/28 03:16:01;;;;;;;6.93;4.43;;;8.10;95.10;;;;;;5133325;27;20884;-79
2021/05/28 03:18:34;;;;;;;9.60;4.17;;;8.10;94.90;;;;;;5133934;27;20377;-78
2021/05/28 03:21:20;;;;;;;7.82;4.28;;;8.10;94.50;;;;;;5134239;27;20374;-79
2021/05/28 03:23:50;;;;;;;6.63;4.63;;;8.00;94.80;;;;;;5133290;27;20385;-78
2021/05/28 03:26:16;;;;;;;7.68;4.45;;;8.00;94.60;;;;;;5132783;27;20374;-79
2021/05/28 03:28:42;;;;;;;10.85;5.68;;;7.90;94.80;;;;;;5133927;27;20827;-78
2021/05/28 03:31:08;;;;;;;7.50;3.90;;;7.80;95.00;;;;;;5134153;27;20453;-78
2021/05/28 03:33:33;;;;;;;10.27;4.53;;;7.80;95.20;;;;;;5133362;27;20481;-78
2021/05/28 03:35:59;;;;;;;5.60;4.17;;;7.90;94.90;;;;;;5132626;27;20770;-78
2021/05/28 03:38:25;;;;;;;9.17;4.50;;;7.90;94.80;;;;;;5131739;27;20440;-79
2021/05/28 03:40:51;;;;;;;10.35;4.57;;;7.90;94.40;;;;;;5134245;27;20842;-78
2021/05/28 03:43:16;;;;;;;6.67;4.33;;;7.90;94.40;;;;;;5133784;27;20398;-78
2021/05/28 03:45:42;;;;;;;10.33;5.53;;;7.90;94.10;;;;;;5132884;27;20825;-79
2021/05/28 03:48:08;;;;;;;7.17;5.23;;;7.90;93.90;;;;;;5133256;27;20400;-79
2021/05/28 03:50:33;;;;;;;8.17;4.27;;;7.90;94.10;;;;;;5133617;27;20395;-78
2021/05/28 03:52:59;;;;;;;8.17;4.63;;;7.80;94.10;;;;;;5133844;27;20378;-78
2021/05/28 03:55:25;;;;;;;7.37;4.40;;;7.60;94.60;;;;;;5134064;27;20799;-79
2021/05/28 03:57:50;;;;;;;6.87;4.67;;;7.60;95.00;;;;;;5131721;27;20371;-78
2021/05/28 04:00:16;;;;;;;7.23;4.33;;;7.70;94.70;;;;;;5133599;27;20889;-78
2021/05/28 04:02:42;;;;;;;10.82;4.40;;;7.80;94.30;;;;;;5132001;27;20425;-79
2021/05/28 04:05:09;;;;;;;5.40;3.87;;;7.90;94.00;;;;;;5133619;27;20402;-79
2021/05/28 04:07:34;;;;;;;12.65;4.60;;;7.90;93.80;;;;;;5133158;27;20375;-78
2021/05/28 04:10:00;;;;;;;8.13;4.63;;;7.80;93.90;;;;;;5133383;27;20712;-79
2021/05/28 04:12:25;;;;;;;8.57;4.30;;;7.80;94.10;;;;;;5133516;27;20371;-80
2021/05/28 04:14:51;;;;;;;8.23;4.47;;;7.90;93.90;;;;;;5133246;27;20398;-79
2021/05/28 04:17:16;;;;;;;8.65;5.28;;;7.90;93.80;;;;;;5132787;27;20366;-79
2021/05/28 04:19:42;;;;;;;9.52;5.82;;;7.90;94.30;;;;;;5132229;27;20719;-79
2021/05/28 04:22:08;;;;;;;12.52;6.28;;;7.90;94.70;;;;;;5131918;27;20378;-80
2021/05/28 04:24:33;;;;;;;9.00;6.40;;;7.90;94.60;;;;;;5131192;27;20798;-79
2021/05/28 04:26:59;;;;;;;10.83;7.40;;;7.90;94.90;;;;;;5131707;27;20808;-79
2021/05/28 04:29:24;;;;;;;11.50;7.30;;;7.80;95.70;;;;;;5133083;27;20398;-80
2021/05/28 04:31:50;;;;;;;14.93;7.68;;;7.90;95.50;;;;;;5133134;27;20440;-80
2021/05/28 04:34:15;;;;;;;41.43;8.33;;;7.90;95.50;;;;;;5133076;27;20455;-79
2021/05/28 04:36:41;;;;;;;13.43;7.77;;;7.80;96.20;;;;;;5132832;27;20375;-79
2021/05/28 04:39:06;;;;;;;15.07;8.60;;;7.80;96.70;;;;;;5133509;27;20401;-80
2021/05/28 04:41:32;;;;;;;12.20;8.23;;;7.70;97.10;;;;;;5132921;27;20367;-79
2021/05/28 04:43:57;;;;;;;60.35;11.10;;;7.80;97.10;;;;;;5133204;27;20450;-78
2021/05/28 04:46:23;;;;;;;34.70;10.45;;;7.80;97.00;;;;;;5132889;27;20451;-79
2021/05/28 04:48:48;;;;;;;16.37;10.37;;;7.70;97.60;;;;;;5131766;27;20389;-81
2021/05/28 04:51:15;;;;;;;19.23;9.70;;;7.70;97.70;;;;;;5133317;27;20374;-79
2021/05/28 04:53:40;;;;;;;21.75;10.10;;;7.80;97.70;;;;;;5133024;27;20761;-80
2021/05/28 04:56:06;;;;;;;44.23;11.27;;;7.90;97.60;;;;;;5131607;27;20401;-78
2021/05/28 04:58:31;;;;;;;35.17;12.18;;;7.80;97.90;;;;;;5130484;27;20378;-80
2021/05/28 05:00:57;;;;;;;17.38;11.25;;;7.80;98.10;;;;;;5117609;27;20461;-80
2021/05/28 05:03:22;;;;;;;22.43;11.33;;;7.90;98.30;;;;;;5027911;28;20387;-80
2021/05/28 05:05:48;;;;;;;47.03;11.80;;;8.00;98.00;;;;;;5028403;28;20418;-80
2021/05/28 05:08:13;;;;;;;18.53;11.80;;;7.90;98.10;;;;;;5028375;28;20371;-79
2021/05/28 05:10:39;;;;;;;17.60;10.37;;;8.00;98.20;;;;;;5028507;28;20490;-79
2021/05/28 05:13:12;;;;;;;60.57;12.63;;;8.10;98.10;;;;;;5028210;28;20503;-79
2021/05/28 05:15:38;;;;;;;20.13;13.00;;;8.10;97.90;;;;;;5026895;28;20399;-79
2021/05/28 05:18:06;;;;;;;20.33;12.68;;;8.20;98.20;;;;;;5028168;28;20375;-79
2021/05/28 05:20:32;;;;;;;89.85;16.13;;;8.30;98.20;;;;;;5028043;28;20727;-80
2021/05/28 05:22:57;;;;;;;35.35;14.82;;;8.10;98.10;;;;;;5028395;28;20376;-79
2021/05/28 05:25:23;;;;;;;101.27;19.13;;;8.10;98.50;;;;;;5028147;28;20390;-79
2021/05/28 05:27:48;;;;;;;85.28;18.25;;;8.00;98.40;;;;;;5027686;28;20410;-79
2021/05/28 05:30:14;;;;;;;70.78;19.33;;;8.00;98.70;;;;;;5026439;28;20785;-80
2021/05/28 05:32:40;;;;;;;93.28;20.98;;;8.00;98.90;;;;;;5028368;28;20379;-79
2021/05/28 05:35:06;;;;;;;101.40;21.35;;;8.10;98.80;;;;;;5026190;28;20399;-80
2021/05/28 05:37:32;;;;;;;68.45;21.83;;;8.20;99.00;;;;;;5027339;28;20466;-81
2021/05/28 05:39:57;;;;;;;84.97;22.00;;;8.00;99.00;;;;;;5027948;28;20842;-82
2021/05/28 05:42:23;;;;;;;121.97;22.80;;;8.10;99.10;;;;;;5028300;28;20761;-80
2021/05/28 05:44:48;;;;;;;115.22;21.92;;;8.10;99.10;;;;;;5027812;28;20367;-82
2021/05/28 05:47:14;;;;;;;44.78;21.08;;;8.20;99.30;;;;;;5027116;28;20731;-81
2021/05/28 05:49:39;;;;;;;68.90;22.83;;;8.30;99.30;;;;;;5027952;28;20395;-81
2021/05/28 05:52:05;;;;;;;51.57;21.10;;;8.30;99.20;;;;;;5026080;28;20376;-81
2021/05/28 05:54:32;;;;;;;92.03;21.85;;;8.30;99.20;;;;;;5026654;28;20395;-82
2021/05/28 05:56:57;;;;;;;46.93;20.10;;;8.40;99.30;;;;;;5025506;28;20464;-82
2021/05/28 05:59:24;;;;;;;43.97;19.97;;;8.40;99.10;;;;;;5026555;28;20448;-81
2021/05/28 06:01:50;;;;;;;41.88;19.63;;;8.50;99.10;;;;;;5027050;28;20850;-81
2021/05/28 06:04:15;;;;;;;47.97;19.98;;;8.60;99.00;;;;;;5027948;28;20398;-81
2021/05/28 06:06:41;;;;;;;75.07;23.70;;;8.70;98.80;;;;;;5027159;28;20387;-81
2021/05/28 06:09:07;;;;;;;54.58;23.05;;;8.60;98.40;;;;;;5026112;28;20402;-82
2021/05/28 06:11:33;;;;;;;47.78;21.95;;;8.70;98.50;;;;;;5026086;28;20431;-82
2021/05/28 06:13:58;;;;;;;64.10;25.00;;;8.60;98.50;;;;;;5027525;28;20846;-82
2021/05/28 06:16:24;;;;;;;73.30;26.13;;;8.50;98.50;;;;;;5027320;28;20383;-83
2021/05/28 06:18:49;;;;;;;84.00;27.30;;;8.50;98.60;;;;;;5025716;28;20920;-81
2021/05/28 06:21:15;;;;;;;59.30;24.45;;;8.60;98.70;;;;;;5027303;28;20855;-81
2021/05/28 06:23:40;;;;;;;60.42;24.98;;;8.70;98.80;;;;;;5025886;28;20522;-82
2021/05/28 06:26:06;;;;;;;58.45;24.38;;;8.90;98.70;;;;;;5026266;28;20470;-82
2021/05/28 06:28:31;;;;;;;62.17;24.53;;;8.90;98.70;;;;;;5026738;28;20872;-81
2021/05/28 06:30:57;;;;;;;56.97;23.37;;;8.90;98.80;;;;;;5027460;28;20399;-81
2021/05/28 06:33:23;;;;;;;53.93;22.37;;;8.90;98.60;;;;;;5027070;28;20390;-81
2021/05/28 06:35:48;;;;;;;53.00;24.45;;;8.90;98.60;;;;;;5027572;28;20379;-83
2021/05/28 06:38:14;;;;;;;62.00;25.38;;;8.90;98.30;;;;;;5026953;28;20379;-85
2021/05/28 06:40:39;;;;;;;53.40;23.80;;;8.90;98.20;;;;;;5032360;28;20413;-81
2021/05/28 06:43:06;;;;;;;66.68;25.67;;;8.90;98.10;;;;;;5037143;28;20396;-81
2021/05/28 06:45:32;;;;;;;60.90;25.85;;;9.00;98.20;;;;;;5027710;28;20418;-81
2021/05/28 06:47:58;;;;;;;53.97;23.55;;;9.10;98.30;;;;;;5041488;28;20406;-81
2021/05/28 06:50:24;;;;;;;58.78;25.05;;;9.00;97.90;;;;;;5040898;28;20397;-81
2021/05/28 06:52:50;;;;;;;52.22;23.05;;;9.10;98.00;;;;;;5045954;28;20838;-81
2021/05/28 06:55:15;;;;;;;55.80;24.30;;;9.00;97.80;;;;;;5038987;28;20387;-82
2021/05/28 06:57:41;;;;;;;48.97;22.37;;;9.00;97.40;;;;;;5034259;28;20395;-81
2021/05/28 07:00:10;;;;;;;52.00;23.50;;;9.20;97.50;;;;;;5032352;28;20382;-80
2021/05/28 07:02:36;;;;;;;57.28;26.15;;;9.30;97.50;;;;;;5052728;28;20367;-80
2021/05/28 07:05:04;;;;;;;60.60;26.23;;;9.00;97.20;;;;;;5065110;27;20379;-80
2021/05/28 07:07:29;;;;;;;58.13;25.20;;;9.10;97.80;;;;;;5026353;28;20380;-80
2021/05/28 07:09:55;;;;;;;47.07;23.33;;;9.20;97.80;;;;;;5025011;28;20844;-80
2021/05/28 07:12:20;;;;;;;53.57;23.57;;;9.10;97.10;;;;;;5028837;28;20574;-79
2021/05/28 07:14:46;;;;;;;49.47;22.97;;;9.20;96.70;;;;;;5038722;27;20395;-79
2021/05/28 07:17:11;;;;;;;51.58;24.42;;;9.30;96.70;;;;;;5028214;28;20379;-80
2021/05/28 07:19:37;;;;;;;56.85;25.05;;;9.40;96.60;;;;;;5036386;28;20735;-81
2021/05/28 07:22:03;;;;;;;54.78;24.95;;;9.50;96.20;;;;;;5046750;28;20378;-80
2021/05/28 07:24:28;;;;;;;57.43;25.80;;;9.40;96.00;;;;;;5047585;27;20370;-79
2021/05/28 07:26:54;;;;;;;55.77;24.80;;;9.30;96.30;;;;;;5047705;28;20392;-80
2021/05/28 07:29:20;;;;;;;45.67;23.13;;;9.20;95.80;;;;;;5049492;28;20730;-80
2021/05/28 07:31:45;;;;;;;53.50;23.23;;;9.10;95.80;;;;;;5049641;28;20378;-80
2021/05/28 07:34:11;;;;;;;60.00;26.20;;;9.10;96.20;;;;;;5048422;28;20401;-79
2021/05/28 07:36:37;;;;;;;60.57;27.80;;;9.20;96.50;;;;;;5048279;28;20413;-79
2021/05/28 07:39:03;;;;;;;73.53;29.23;;;9.00;96.40;;;;;;5048242;28;20384;-81
2021/05/28 07:41:29;;;;;;;71.97;28.85;;;9.00;96.90;;;;;;5047778;28;20373;-78
2021/05/28 07:43:54;;;;;;;72.97;29.85;;;8.90;97.40;;;;;;5049798;28;20505;-79
2021/05/28 07:46:20;;;;;;;67.18;28.65;;;9.10;97.30;;;;;;5048423;28;20767;-80
2021/05/28 07:48:45;;;;;;;67.43;29.20;;;9.30;97.40;;;;;;5047399;28;20382;-79
2021/05/28 07:51:11;;;;;;;65.07;28.83;;;9.30;96.80;;;;;;5048719;28;20382;-80
2021/05/28 07:53:37;;;;;;;67.53;29.57;;;9.40;96.90;;;;;;5047813;28;20535;-80
2021/05/28 07:56:06;;;;;;;65.40;27.67;;;9.20;97.00;;;;;;5048348;28;20378;-79
2021/05/28 07:58:32;;;;;;;61.23;27.40;;;9.20;96.60;;;;;;5047495;28;20397;-79
2021/05/28 08:00:58;;;;;;;60.03;25.80;;;9.40;96.40;;;;;;5049459;28;20472;-80
2021/05/28 08:03:23;;;;;;;61.50;25.80;;;9.40;96.10;;;;;;5047901;28;20937;-80
2021/05/28 08:05:50;;;;;;;63.90;27.03;;;9.20;95.50;;;;;;5049178;28;20392;-78
2021/05/28 08:08:17;;;;;;;73.30;27.90;;;9.20;95.30;;;;;;5048846;28;20370;-79
2021/05/28 08:10:42;;;;;;;64.65;28.10;;;9.40;96.10;;;;;;5049236;28;20401;-79
2021/05/28 08:13:08;;;;;;;63.20;26.65;;;9.60;96.60;;;;;;5048746;28;20873;-79
2021/05/28 08:15:34;;;;;;;69.43;28.05;;;9.80;96.00;;;;;;5049172;28;20374;-78
2021/05/28 08:18:00;;;;;;;70.40;26.98;;;10.00;95.30;;;;;;5048580;28;20378;-79
2021/05/28 08:20:25;;;;;;;60.93;26.17;;;9.80;95.60;;;;;;5047619;28;20397;-79
2021/05/28 08:22:53;;;;;;;65.80;28.33;;;9.40;94.60;;;;;;5049087;28;20464;-78
2021/05/28 08:25:18;;;;;;;71.90;28.35;;;9.40;95.60;;;;;;5109273;27;20720;-78
2021/05/28 08:27:44;;;;;;;70.28;27.38;;;9.60;96.30;;;;;;5132576;27;20367;-77
2021/05/28 08:30:13;;;;;;;68.15;29.20;;;9.70;96.50;;;;;;5132733;27;20489;-78
2021/05/28 08:32:38;;;;;;;71.37;28.23;;;9.70;96.50;;;;;;5133147;27;20829;-78
2021/05/28 08:35:04;;;;;;;64.87;27.40;;;9.40;95.50;;;;;;5132625;27;20371;-79
2021/05/28 08:37:30;;;;;;;65.23;27.97;;;9.60;95.80;;;;;;5132326;27;20805;-78
2021/05/28 08:39:55;;;;;;;63.60;26.23;;;9.70;95.30;;;;;;5132483;27;20462;-79
2021/05/28 08:42:21;;;;;;;64.57;25.63;;;9.90;94.10;;;;;;5132902;27;20379;-80
2021/05/28 08:44:48;;;;;;;62.95;26.40;;;9.90;94.00;;;;;;5132593;27;20367;-79
2021/05/28 08:47:16;;;;;;;69.47;27.98;;;10.10;93.20;;;;;;5131999;27;20392;-78
2021/05/28 08:49:49;;;;;;;60.67;25.48;;;10.20;92.70;;;;;;5132865;27;20784;-78
2021/05/28 08:52:16;;;;;;;54.90;24.65;;;10.40;92.70;;;;;;5132571;27;20371;-80
2021/05/28 08:54:42;;;;;;;60.17;23.65;;;10.50;92.10;;;;;;5131602;27;20712;-78
2021/05/28 08:57:09;;;;;;;59.30;24.50;;;10.40;89.90;;;;;;5131754;27;20378;-78
2021/05/28 08:59:35;;;;;;;57.85;24.73;;;10.50;92.80;;;;;;5132683;27;20473;-81
2021/05/28 09:02:00;;;;;;;55.08;22.50;;;10.80;90.90;;;;;;5132245;27;20466;-77
2021/05/28 09:04:26;;;;;;;60.63;25.88;;;11.00;89.10;;;;;;5132758;27;20382;-77
2021/05/28 09:06:52;;;;;;;57.97;23.67;;;11.30;89.70;;;;;;5131982;27;20370;-78
2021/05/28 09:09:27;;;;;;;51.60;21.77;;;11.10;88.40;;;;;;5131198;27;20459;-79
2021/05/28 09:12:01;;;;;;;47.08;20.98;;;11.10;86.90;;;;;;5132132;27;20486;-78
2021/05/28 09:14:30;;;;;;;59.90;23.95;;;11.70;87.30;;;;;;5130689;27;20394;-78
2021/05/28 09:16:55;;;;;;;54.03;22.60;;;11.70;87.40;;;;;;5130400;27;20515;-78
2021/05/28 09:19:24;;;;;;;52.70;22.55;;;11.90;87.30;;;;;;5132251;27;20481;-78
2021/05/28 09:22:04;;;;;;;58.30;24.77;;;12.20;88.00;;;;;;5130343;27;21522;-78
2021/05/28 09:24:34;;;;;;;58.20;26.25;;;12.00;86.00;;;;;;5132141;27;20363;-78
2021/05/28 09:27:23;;;;;;;43.83;19.13;;;12.70;87.30;;;;;;5131906;27;20382;-78
2021/05/28 09:30:03;;;;;;;47.10;19.98;;;12.50;83.30;;;;;;5130574;27;20430;-77
2021/05/28 09:32:29;;;;;;;41.30;17.98;;;12.50;83.50;;;;;;5130517;27;20389;-77
2021/05/28 09:34:55;;;;;;;44.25;18.42;;;12.80;82.00;;;;;;5130591;27;20374;-77
2021/05/28 09:37:37;;;;;;;42.53;18.03;;;12.80;81.30;;;;;;5130983;27;20390;-78
2021/05/28 09:40:13;;;;;;;42.65;19.10;;;12.60;79.50;;;;;;5132056;27;20385;-77
2021/05/28 09:42:53;;;;;;;44.83;19.20;;;12.50;81.40;;;;;;5131750;27;20373;-76
2021/05/28 09:45:39;;;;;;;45.03;19.40;;;13.30;77.70;;;;;;5132277;27;20370;-79
2021/05/28 09:48:40;;;;;;;46.05;20.58;;;13.40;80.90;;;;;;5131412;27;20699;-77
2021/05/28 09:51:06;;;;;;;47.17;19.75;;;13.30;80.00;;;;;;5130970;27;20402;-78
2021/05/28 09:53:40;;;;;;;40.38;19.08;;;13.40;82.20;;;;;;5131942;27;20684;-78
2021/05/28 09:56:35;;;;;;;41.63;19.92;;;13.10;78.70;;;;;;5131528;27;20370;-77
2021/05/28 09:59:07;;;;;;;42.97;18.77;;;13.50;81.40;;;;;;5118043;27;20374;-78
2021/05/28 10:01:38;;;;;;;45.78;19.95;;;13.90;82.00;;;;;;5130209;27;20378;-78
2021/05/28 10:04:08;;;;;;;35.13;17.23;;;14.20;81.80;;;;;;5130127;27;20954;-78
2021/05/28 10:06:35;;;;;;;28.55;13.15;;;14.20;80.20;;;;;;5129903;27;20378;-78
2021/05/28 10:09:08;;;;;;;24.85;11.93;;;14.10;75.00;;;;;;5131533;27;20371;-78
2021/05/28 10:11:37;;;;;;;22.90;11.63;;;14.40;76.00;;;;;;5131601;27;20398;-77
2021/05/28 10:14:03;;;;;;;27.27;12.40;;;14.30;75.00;;;;;;5131224;27;20378;-78
2021/05/28 10:16:30;;;;;;;31.40;14.63;;;14.60;74.00;;;;;;5131154;27;20371;-78
2021/05/28 10:18:56;;;;;;;29.48;13.23;;;14.90;78.70;;;;;;5131209;27;20449;-79
2021/05/28 10:21:23;;;;;;;28.15;12.75;;;14.40;72.00;;;;;;5131450;27;20389;-79
2021/05/28 10:23:49;;;;;;;22.73;11.38;;;14.00;69.50;;;;;;5129921;27;20371;-78
2021/05/28 10:26:23;;;;;;;22.13;10.02;;;14.30;71.40;;;;;;5129684;28;20417;-79
2021/05/28 10:28:49;;;;;;;22.20;10.70;;;14.30;69.90;;;;;;5129927;28;20374;-78
2021/05/28 10:31:15;;;;;;;25.55;12.48;;;14.00;69.00;;;;;;5125783;27;20371;-79
2021/05/28 10:33:52;;;;;;;22.80;11.60;;;14.30;69.60;;;;;;5027033;28;20534;-78
2021/05/28 10:36:45;;;;;;;26.67;11.45;;;14.90;70.10;;;;;;5027226;28;20712;-78
2021/05/28 10:39:13;;;;;;;30.60;12.10;;;14.80;71.70;;;;;;5026919;28;20833;-78
2021/05/28 10:41:41;;;;;;;24.30;11.05;;;14.50;68.10;;;;;;5022672;28;20383;-78
2021/05/28 10:44:10;;;;;;;21.05;9.70;;;14.60;68.80;;;;;;5129397;27;20389;-78
2021/05/28 10:46:36;;;;;;;13.68;6.82;;;14.80;66.30;;;;;;5131026;27;20374;-78
2021/05/28 10:49:02;;;;;;;15.07;6.43;;;14.80;64.10;;;;;;5132697;27;20500;-78
2021/05/28 10:51:27;;;;;;;11.73;6.50;;;14.90;62.50;;;;;;5135220;27;20410;-78
2021/05/28 10:53:53;;;;;;;12.02;6.25;;;14.90;61.00;;;;;;5135081;27;20711;-79
2021/05/28 10:56:26;;;;;;;14.73;7.18;;;14.80;62.80;;;;;;5135318;27;20401;-78
2021/05/28 10:58:56;;;;;;;15.73;6.60;;;14.80;63.80;;;;;;5134882;27;20375;-79
2021/05/28 11:01:31;;;;;;;15.70;5.43;;;14.90;66.00;;;;;;5133863;27;20374;-79
2021/05/28 11:03:57;;;;;;;13.68;6.28;;;15.20;66.30;;;;;;5134892;27;20769;-78
2021/05/28 11:06:23;;;;;;;11.38;5.90;;;15.40;66.90;;;;;;5133594;27;20406;-78
2021/05/28 11:08:51;;;;;;;12.60;5.80;;;15.30;62.30;;;;;;5134389;27;20429;-79
2021/05/28 11:11:35;;;;;;;11.82;6.10;;;15.40;61.70;;;;;;5044175;27;20403;-78
2021/05/28 11:14:23;;;;;;;11.40;5.60;;;15.40;58.90;;;;;;5030031;28;21147;-78
2021/05/28 11:16:51;;;;;;;12.32;4.88;;;15.10;59.50;;;;;;5027950;28;20396;-79
2021/05/28 11:19:44;;;;;;;7.40;4.15;;;15.40;65.50;;;;;;5028814;28;20395;-78
2021/05/28 11:22:12;;;;;;;7.50;3.93;;;15.60;63.40;;;;;;5029941;28;20558;-78
2021/05/28 11:24:56;;;;;;;8.10;4.43;;;15.70;60.50;;;;;;5028848;28;20421;-78
2021/05/28 11:27:24;;;;;;;7.65;3.47;;;15.90;61.70;;;;;;5029749;28;20396;-77
2021/05/28 11:30:02;;;;;;;6.72;3.10;;;15.80;55.60;;;;;;5029568;28;20418;-77
2021/05/28 11:32:37;;;;;;;7.85;2.88;;;15.40;53.90;;;;;;5030409;28;20470;-76
2021/05/28 11:35:28;;;;;;;8.18;3.20;;;15.90;58.30;;;;;;5028081;28;20395;-77
2021/05/28 11:38:01;;;;;;;6.90;3.03;;;16.00;59.50;;;;;;5028411;28;20430;-77
2021/05/28 11:40:36;;;;;;;6.30;3.42;;;16.30;61.70;;;;;;5028583;28;20761;-77
2021/05/28 11:43:06;;;;;;;8.52;4.07;;;16.00;56.10;;;;;;5029970;28;20396;-77
2021/05/28 11:45:34;;;;;;;10.27;3.97;;;16.10;57.50;;;;;;5030234;28;20393;-77
2021/05/28 11:48:01;;;;;;;7.63;4.03;;;16.40;60.30;;;;;;5024011;28;20942;-77
2021/05/28 11:50:39;;;;;;;7.33;4.10;;;16.60;59.70;;;;;;5029716;27;20407;-78
2021/05/28 11:53:06;;;;;;;7.78;3.72;;;16.80;59.10;;;;;;5132644;27;20383;-77
2021/05/28 11:55:41;;;;;;;12.10;4.85;;;16.30;56.00;;;;;;5133198;27;20900;-77
2021/05/28 11:58:06;;;;;;;7.55;4.22;;;16.10;54.30;;;;;;5130295;27;20648;-77
2021/05/28 12:00:32;;;;;;;7.37;4.77;;;16.40;55.30;;;;;;5132899;27;20886;-77
2021/05/28 12:02:59;;;;;;;6.55;4.10;;;16.40;56.40;;;;;;5132837;27;20455;-77
2021/05/28 12:05:29;;;;;;;6.82;4.10;;;16.00;56.20;;;;;;5095933;27;20710;-78
2021/05/28 12:08:14;;;;;;;7.93;4.10;;;16.30;54.50;;;;;;5027708;28;20390;-78
2021/05/28 12:11:03;;;;;;;8.23;4.50;;;16.30;51.70;;;;;;5026768;28;20402;-78
2021/05/28 12:13:37;;;;;;;8.40;4.85;;;16.30;53.80;;;;;;5028194;28;20430;-77
2021/05/28 12:16:05;;;;;;;10.17;4.63;;;16.40;52.30;;;;;;5028141;28;20386;-79
2021/05/28 12:18:43;;;;;;;8.55;4.38;;;16.30;56.30;;;;;;5026780;28;20402;-77
2021/05/28 12:21:26;;;;;;;10.93;4.60;;;16.30;54.90;;;;;;5028304;28;20796;-77
2021/05/28 12:23:53;;;;;;;8.20;4.80;;;17.30;57.70;;;;;;5028145;28;20731;-78
2021/05/28 12:26:21;;;;;;;9.90;5.23;;;17.00;53.00;;;;;;5026482;28;20395;-76
2021/05/28 12:28:54;;;;;;;12.75;4.75;;;17.00;53.60;;;;;;5028856;27;20407;-77
2021/05/28 12:31:23;;;;;;;6.70;4.38;;;16.90;54.80;;;;;;5026710;28;20744;-77
2021/05/28 12:34:02;;;;;;;7.25;4.35;;;17.10;53.00;;;;;;5026656;28;20851;-76
2021/05/28 12:36:42;;;;;;;6.82;4.00;;;17.30;51.90;;;;;;5026127;28;20407;-77
2021/05/28 12:39:18;;;;;;;7.60;3.70;;;17.30;56.40;;;;;;5027979;28;20907;-78
2021/05/28 12:41:46;;;;;;;4.28;2.88;;;17.40;51.10;;;;;;5026359;28;20391;-77
2021/05/28 12:44:21;;;;;;;4.47;2.90;;;17.10;49.60;;;;;;5027985;28;20766;-77